createdAt,value
2023-01-31T00:02:04.638Z,96744.59
2023-01-31T00:04:32.856Z,96762.50
2023-01-31T00:07:00.903Z,96751.28
2023-01-31T00:09:28.989Z,96743.06
2023-01-31T00:11:57.179Z,96754.31
2023-01-31T00:14:26.000Z,96753.06
2023-01-31T00:16:56.079Z,96753.81
2023-01-31T00:19:24.119Z,96761.50
2023-01-31T00:21:52.397Z,96769.41
2023-01-31T00:24:20.343Z,96763.09
2023-01-31T00:26:56.901Z,96768.78
2023-01-31T00:29:27.832Z,96774.50
2023-01-31T00:31:57.593Z,96801.28
2023-01-31T00:34:25.687Z,96786.84
2023-01-31T00:36:53.638Z,96790.28
2023-01-31T00:39:21.640Z,96787.13
2023-01-31T00:41:50.273Z,96801.28
2023-01-31T00:44:18.673Z,96800.47
2023-01-31T00:46:46.748Z,96804.44
2023-01-31T00:49:16.561Z,96803.47
2023-01-31T00:51:45.215Z,96813.94
2023-01-31T00:54:13.430Z,96816.41
2023-01-31T00:56:41.720Z,96804.50
2023-01-31T00:59:09.737Z,96821.25
2023-01-31T01:01:39.073Z,96821.41
2023-01-31T01:04:07.539Z,96835.59
2023-01-31T01:06:39.960Z,96823.63
2023-01-31T01:09:08.553Z,96822.50
2023-01-31T01:11:36.847Z,96845.25
2023-01-31T01:14:05.280Z,96845.38
2023-01-31T01:16:36.923Z,96829.53
2023-01-31T01:19:06.978Z,96836.03
2023-01-31T01:21:39.236Z,96850.97
2023-01-31T01:24:15.018Z,96845.09
2023-01-31T01:26:44.087Z,96863.50
2023-01-31T01:29:12.964Z,96839.97
2023-01-31T01:31:41.901Z,96850.06
2023-01-31T01:34:13.615Z,96862.00
2023-01-31T01:36:42.335Z,96869.72
2023-01-31T01:39:13.160Z,96871.72
2023-01-31T01:41:44.043Z,96874.09
2023-01-31T01:44:50.759Z,96868.31
2023-01-31T01:47:31.440Z,96869.41
2023-01-31T01:50:04.460Z,96854.25
2023-01-31T01:52:37.486Z,96869.47
2023-01-31T01:55:14.876Z,96869.47
2023-01-31T01:57:47.103Z,96866.34
2023-01-31T02:00:19.172Z,96881.53
2023-01-31T02:02:50.107Z,96890.25
2023-01-31T02:05:23.779Z,96879.94
2023-01-31T02:07:52.148Z,96904.31
2023-01-31T02:10:29.194Z,96899.59
2023-01-31T02:12:57.553Z,96908.28
2023-01-31T02:15:26.181Z,96901.91
2023-01-31T02:17:55.041Z,96909.88
2023-01-31T02:20:45.026Z,96901.03
2023-01-31T02:23:33.133Z,96911.66
2023-01-31T02:26:34.091Z,96903.75
2023-01-31T02:29:25.417Z,96906.13
2023-01-31T02:32:35.603Z,96909.38
2023-01-31T02:35:12.324Z,96915.50
2023-01-31T02:37:49.336Z,96921.91
2023-01-31T02:40:25.322Z,96927.78
2023-01-31T02:43:00.728Z,96923.75
2023-01-31T02:45:36.937Z,96930.19
2023-01-31T02:48:20.328Z,96930.34
2023-01-31T02:51:01.832Z,96929.53
2023-01-31T02:53:35.356Z,96928.34
2023-01-31T02:56:18.009Z,96947.22
2023-01-31T02:58:53.703Z,96954.25
2023-01-31T03:01:29.268Z,96935.63
2023-01-31T03:04:03.143Z,96943.63
2023-01-31T03:07:00.070Z,96955.47
2023-01-31T03:09:46.932Z,96963.75
2023-01-31T03:12:23.647Z,96971.75
2023-01-31T03:15:02.535Z,96973.81
2023-01-31T03:17:36.892Z,96992.66
2023-01-31T03:20:16.198Z,96993.31
2023-01-31T03:22:47.557Z,96991.13
2023-01-31T03:25:20.010Z,96991.13
2023-01-31T03:27:55.640Z,97007.13
2023-01-31T03:30:32.709Z,97004.16
2023-01-31T03:33:05.619Z,97003.13
2023-01-31T03:35:40.395Z,97004.06
2023-01-31T03:38:16.452Z,96996.06
2023-01-31T03:40:50.405Z,97004.75
2023-01-31T03:43:26.861Z,96988.66
2023-01-31T03:46:01.915Z,97009.19
2023-01-31T03:48:34.659Z,97012.94
2023-01-31T03:51:08.307Z,97017.97
2023-01-31T03:53:40.322Z,97027.13
2023-01-31T03:56:16.977Z,97031.38
2023-01-31T03:58:51.811Z,97028.84
2023-01-31T04:01:23.855Z,97029.03
2023-01-31T04:03:57.057Z,97037.41
2023-01-31T04:06:27.780Z,97039.19
2023-01-31T04:08:56.857Z,97035.63
2023-01-31T04:11:27.372Z,97038.69
2023-01-31T04:13:56.065Z,97045.53
2023-01-31T04:16:24.569Z,97044.66
2023-01-31T04:18:52.854Z,97039.25
2023-01-31T04:21:21.091Z,97045.31
2023-01-31T04:23:50.528Z,97058.38
2023-01-31T04:26:18.751Z,97043.38
2023-01-31T04:28:47.022Z,97043.41
2023-01-31T04:31:15.355Z,97059.66
2023-01-31T04:33:43.904Z,97064.81
2023-01-31T04:36:12.302Z,97043.78
2023-01-31T04:38:40.434Z,97052.28
2023-01-31T04:41:09.826Z,97058.72
2023-01-31T04:43:37.887Z,97059.06
2023-01-31T04:46:06.178Z,97055.84
2023-01-31T04:48:34.309Z,97051.44
2023-01-31T04:51:02.488Z,97051.50
2023-01-31T04:53:30.517Z,97050.38
2023-01-31T04:55:58.529Z,97048.25
2023-01-31T04:58:28.257Z,97045.28
2023-01-31T05:00:56.735Z,97051.53
2023-01-31T05:03:25.101Z,97066.09
2023-01-31T05:05:53.166Z,97039.75
2023-01-31T05:08:21.646Z,97061.38
2023-01-31T05:10:49.670Z,97052.38
2023-01-31T05:13:17.621Z,97072.91
2023-01-31T05:15:49.741Z,97053.94
2023-01-31T05:18:18.425Z,97057.44
2023-01-31T05:20:46.487Z,97044.66
2023-01-31T05:23:14.614Z,97055.78
2023-01-31T05:25:42.815Z,97051.69
2023-01-31T05:28:11.723Z,97054.09
2023-01-31T05:30:40.676Z,97051.56
2023-01-31T05:33:10.430Z,97070.69
2023-01-31T05:35:39.520Z,97060.31
2023-01-31T05:38:07.791Z,97066.09
2023-01-31T05:40:36.126Z,97047.38
2023-01-31T05:43:04.448Z,97064.13
2023-01-31T05:45:33.322Z,97057.16
2023-01-31T05:48:02.422Z,97069.22
2023-01-31T05:50:32.261Z,97070.38
2023-01-31T05:53:11.099Z,97067.88
2023-01-31T05:55:39.161Z,97066.78
2023-01-31T05:58:07.478Z,97080.25
2023-01-31T06:00:35.964Z,97076.88
2023-01-31T06:03:03.970Z,97080.75
2023-01-31T06:05:33.863Z,97074.63
2023-01-31T06:08:02.553Z,97083.69
2023-01-31T06:10:30.858Z,97087.16
2023-01-31T06:12:59.864Z,97096.31
2023-01-31T06:15:28.260Z,97102.31
2023-01-31T06:17:56.705Z,97107.47
2023-01-31T06:20:24.855Z,97106.00
2023-01-31T06:22:54.561Z,97109.91
2023-01-31T06:25:23.111Z,97111.81
2023-01-31T06:27:51.477Z,97112.63
2023-01-31T06:30:19.830Z,97106.06
2023-01-31T06:32:48.073Z,97132.25
2023-01-31T06:35:16.558Z,97118.00
2023-01-31T06:37:44.974Z,97130.53
2023-01-31T06:40:14.806Z,97129.31
2023-01-31T06:42:42.788Z,97118.19
2023-01-31T06:45:11.856Z,97136.13
2023-01-31T06:47:40.020Z,97119.28
2023-01-31T06:50:09.058Z,97113.09
2023-01-31T06:52:37.465Z,97106.69
2023-01-31T06:55:06.320Z,97116.34
2023-01-31T06:57:36.137Z,97115.13
2023-01-31T07:00:05.716Z,97107.94
2023-01-31T07:02:33.885Z,97126.88
2023-01-31T07:05:02.041Z,97122.75
2023-01-31T07:07:30.345Z,97114.69
2023-01-31T07:09:58.533Z,97107.34
2023-01-31T07:12:27.652Z,97111.16
2023-01-31T07:14:57.367Z,97118.56
2023-01-31T07:17:25.565Z,97116.22
2023-01-31T07:19:53.630Z,97120.13
2023-01-31T07:22:21.772Z,97121.16
2023-01-31T07:24:51.110Z,97131.06
2023-01-31T07:27:19.530Z,97125.91
2023-01-31T07:29:47.581Z,97146.75
2023-01-31T07:32:17.066Z,97150.31
2023-01-31T07:34:45.254Z,97149.03
2023-01-31T07:37:13.359Z,97161.06
2023-01-31T07:39:41.671Z,97144.91
2023-01-31T07:42:09.935Z,97158.63
2023-01-31T07:44:38.534Z,97154.47
2023-01-31T07:47:06.642Z,97163.06
2023-01-31T07:49:36.211Z,97158.81
2023-01-31T07:52:04.775Z,97158.28
2023-01-31T07:54:33.210Z,97170.34
2023-01-31T07:57:01.245Z,97156.06
2023-01-31T07:59:29.898Z,97166.63
2023-01-31T08:03:02.191Z,97164.88
2023-01-31T08:05:32.079Z,97168.75
2023-01-31T08:08:10.637Z,97181.28
2023-01-31T08:10:38.894Z,97168.50
2023-01-31T08:13:07.435Z,97172.13
2023-01-31T08:15:36.203Z,97165.34
2023-01-31T08:18:06.313Z,97169.41
2023-01-31T08:20:37.763Z,97173.16
2023-01-31T08:23:05.782Z,97167.53
2023-01-31T08:25:33.791Z,97171.69
2023-01-31T08:28:02.106Z,97172.97
2023-01-31T08:30:30.390Z,97170.84
2023-01-31T08:32:58.592Z,97169.31
2023-01-31T08:35:27.411Z,97164.50
2023-01-31T08:38:07.097Z,97170.28
2023-01-31T08:40:44.471Z,97170.97
2023-01-31T08:43:12.715Z,97175.09
2023-01-31T08:45:41.055Z,97185.59
2023-01-31T08:48:11.227Z,97175.78
2023-01-31T08:50:40.476Z,97185.63
2023-01-31T08:53:10.388Z,97188.81
2023-01-31T08:55:38.554Z,97189.59
2023-01-31T08:58:07.011Z,97192.53
2023-01-31T09:00:35.916Z,97193.28
2023-01-31T09:03:04.645Z,97183.66
2023-01-31T09:05:33.747Z,97191.16
2023-01-31T09:08:02.053Z,97187.75
2023-01-31T09:10:31.605Z,97191.25
2023-01-31T09:13:00.631Z,97185.13
2023-01-31T09:15:28.997Z,97187.47
2023-01-31T09:17:57.443Z,97179.66
2023-01-31T09:20:26.036Z,97173.31
2023-01-31T09:22:54.450Z,97182.28
2023-01-31T09:25:37.409Z,97175.03
2023-01-31T09:28:12.579Z,97177.25
2023-01-31T09:30:40.980Z,97176.34
2023-01-31T09:33:09.717Z,97190.75
2023-01-31T09:35:37.715Z,97187.66
2023-01-31T09:38:05.976Z,97175.56
2023-01-31T09:40:37.119Z,97181.66
2023-01-31T09:43:06.123Z,97170.81
2023-01-31T09:45:38.192Z,97175.44
2023-01-31T09:48:08.686Z,97160.59
2023-01-31T09:50:43.325Z,97164.66
2023-01-31T09:53:14.862Z,97162.91
2023-01-31T09:55:50.171Z,97159.44
2023-01-31T09:58:28.537Z,97155.78
2023-01-31T10:01:09.184Z,97143.00
2023-01-31T10:03:49.730Z,97142.25
2023-01-31T10:06:23.928Z,97142.63
2023-01-31T10:08:58.783Z,97137.72
2023-01-31T10:11:34.156Z,97143.50
2023-01-31T10:14:10.645Z,97141.81
2023-01-31T10:16:47.513Z,97137.00
2023-01-31T10:19:21.818Z,97134.44
2023-01-31T10:21:54.993Z,97133.88
2023-01-31T10:24:30.489Z,97126.75
2023-01-31T10:27:04.556Z,97124.59
2023-01-31T10:29:39.966Z,97137.63
2023-01-31T10:32:16.816Z,97122.88
2023-01-31T10:34:52.213Z,97122.47
2023-01-31T10:37:31.693Z,97135.38
2023-01-31T10:40:05.403Z,97139.22
2023-01-31T10:42:35.705Z,97132.28
2023-01-31T10:45:14.698Z,97146.19
2023-01-31T10:47:50.498Z,97131.44
2023-01-31T10:50:21.308Z,97137.78
2023-01-31T10:53:16.548Z,97143.50
2023-01-31T10:55:56.771Z,97141.50
2023-01-31T10:58:25.399Z,97148.66
2023-01-31T11:00:53.895Z,97138.78
2023-01-31T11:03:23.976Z,97142.41
2023-01-31T11:05:54.168Z,97140.56
2023-01-31T11:08:35.227Z,97131.59
2023-01-31T11:11:09.268Z,97127.69
2023-01-31T11:13:38.686Z,97113.25
2023-01-31T11:16:10.799Z,97116.25
2023-01-31T11:18:47.792Z,97114.50
2023-01-31T11:21:23.267Z,97111.47
2023-01-31T11:23:52.375Z,97103.25
2023-01-31T11:26:30.697Z,97094.53
2023-01-31T11:28:59.169Z,97092.44
2023-01-31T11:31:32.563Z,97086.63
2023-01-31T11:34:03.754Z,97080.28
2023-01-31T11:36:34.716Z,97066.63
2023-01-31T11:39:25.342Z,97066.09
2023-01-31T11:41:53.866Z,97053.63
2023-01-31T11:44:23.775Z,97055.69
2023-01-31T11:46:56.498Z,97037.34
2023-01-31T11:49:30.876Z,97039.00
2023-01-31T11:52:01.268Z,97034.44
2023-01-31T11:54:33.224Z,97030.25
2023-01-31T11:57:03.253Z,97033.41
2023-01-31T11:59:32.256Z,97030.84
2023-01-31T12:02:02.302Z,97043.97
2023-01-31T12:04:42.555Z,97020.66
2023-01-31T12:07:23.372Z,97018.34
2023-01-31T12:09:51.380Z,97017.31
2023-01-31T12:12:31.343Z,97014.94
2023-01-31T12:15:05.004Z,97016.44
2023-01-31T12:17:43.742Z,97011.25
2023-01-31T12:20:40.418Z,97018.56
2023-01-31T12:23:22.007Z,97012.72
2023-01-31T12:26:06.511Z,97007.06
2023-01-31T12:28:47.502Z,96986.28
2023-01-31T12:31:29.866Z,96983.84
2023-01-31T12:34:22.737Z,96979.25
2023-01-31T12:37:12.883Z,96970.91
2023-01-31T12:39:52.903Z,96962.25
2023-01-31T12:42:55.398Z,96962.81
2023-01-31T12:45:39.616Z,96967.94
2023-01-31T12:48:41.718Z,96956.81
2023-01-31T12:51:23.336Z,96944.84
2023-01-31T12:54:01.046Z,96939.78
2023-01-31T12:56:46.427Z,96922.88
2023-01-31T12:59:29.135Z,96921.47
2023-01-31T13:02:03.790Z,96910.28
2023-01-31T13:04:43.829Z,96910.75
2023-01-31T13:07:16.803Z,96910.16
2023-01-31T13:09:50.030Z,96893.94
2023-01-31T13:12:21.562Z,96893.56
2023-01-31T13:14:52.990Z,96893.53
2023-01-31T13:17:26.280Z,96892.56
2023-01-31T13:19:58.515Z,96889.00
2023-01-31T13:22:30.044Z,96880.81
2023-01-31T13:25:16.797Z,96881.91
2023-01-31T13:27:54.673Z,96867.50
2023-01-31T13:30:32.287Z,96886.53
2023-01-31T13:33:01.856Z,96889.63
2023-01-31T13:35:37.051Z,96875.53
2023-01-31T13:38:12.819Z,96873.88
2023-01-31T13:40:52.263Z,96849.44
2023-01-31T13:43:21.203Z,96845.78
2023-01-31T13:45:54.417Z,96854.03
2023-01-31T13:48:28.939Z,96844.38
2023-01-31T13:51:02.863Z,96839.72
2023-01-31T13:53:36.106Z,96829.47
2023-01-31T13:56:12.011Z,96836.34
2023-01-31T13:58:42.705Z,96816.50
2023-01-31T14:01:17.778Z,96825.94
2023-01-31T14:04:25.032Z,96822.91
2023-01-31T14:07:12.607Z,96803.47
2023-01-31T14:09:44.900Z,96806.66
2023-01-31T14:12:45.706Z,96815.19
2023-01-31T14:15:48.217Z,96820.28
2023-01-31T14:18:36.991Z,96823.63
2023-01-31T14:21:43.042Z,96831.28
2023-01-31T14:24:22.301Z,96826.69
2023-01-31T14:26:55.139Z,96819.28
2023-01-31T14:29:27.958Z,96824.81
2023-01-31T14:31:59.083Z,96833.34
2023-01-31T14:34:31.035Z,96835.78
2023-01-31T14:37:14.797Z,96827.25
2023-01-31T14:40:04.177Z,96826.28
2023-01-31T14:43:10.512Z,96814.09
2023-01-31T14:46:02.259Z,96810.97
2023-01-31T14:49:08.362Z,96820.75
2023-01-31T14:51:49.431Z,96820.88
2023-01-31T14:54:38.562Z,96815.44
2023-01-31T14:57:19.618Z,96819.19
2023-01-31T14:59:55.728Z,96812.91
2023-01-31T15:02:47.497Z,96809.44
2023-01-31T15:05:19.235Z,96808.13
2023-01-31T15:08:03.195Z,96807.91
2023-01-31T15:11:02.080Z,96810.00
2023-01-31T15:13:44.230Z,96801.69
2023-01-31T15:16:20.670Z,96794.81
2023-01-31T15:18:55.029Z,96794.00
2023-01-31T15:21:28.335Z,96788.44
2023-01-31T15:23:57.259Z,96786.47
2023-01-31T15:26:29.746Z,96787.69
2023-01-31T15:28:58.881Z,96779.53
2023-01-31T15:31:32.515Z,96784.31
2023-01-31T15:34:06.984Z,96772.25
2023-01-31T15:36:39.995Z,96767.34
2023-01-31T15:39:21.935Z,96772.22
2023-01-31T15:41:50.411Z,96764.97
2023-01-31T15:44:20.446Z,96768.91
2023-01-31T15:46:50.352Z,96770.66
2023-01-31T15:49:38.628Z,96763.28
2023-01-31T15:52:14.828Z,96778.34
2023-01-31T15:54:52.896Z,96783.34
2023-01-31T15:57:23.348Z,96784.78
2023-01-31T15:59:52.006Z,96792.91
2023-01-31T16:02:24.176Z,96788.66
2023-01-31T16:04:59.202Z,96786.28
2023-01-31T16:07:31.894Z,96802.84
2023-01-31T16:10:02.964Z,96792.16
2023-01-31T16:12:34.245Z,96796.97
2023-01-31T16:15:07.454Z,96803.47
2023-01-31T16:17:36.889Z,96789.06
2023-01-31T16:20:09.373Z,96795.00
2023-01-31T16:22:38.668Z,96798.81
2023-01-31T16:25:07.563Z,96801.38
2023-01-31T16:27:39.715Z,96799.50
2023-01-31T16:30:16.905Z,96784.47
2023-01-31T16:32:46.801Z,96782.19
2023-01-31T16:35:25.171Z,96785.19
2023-01-31T16:38:03.723Z,96774.66
2023-01-31T16:40:35.943Z,96774.47
2023-01-31T16:43:12.333Z,96778.97
2023-01-31T16:45:52.356Z,96757.13
2023-01-31T16:48:24.356Z,96757.25
2023-01-31T16:50:55.060Z,96774.84
2023-01-31T16:53:30.355Z,96763.91
2023-01-31T16:56:19.789Z,96779.00
2023-01-31T16:58:51.232Z,96766.22
2023-01-31T17:01:23.077Z,96780.47
2023-01-31T17:04:09.174Z,96783.53
2023-01-31T17:06:39.523Z,96774.66
2023-01-31T17:09:08.945Z,96793.28
2023-01-31T17:11:43.180Z,96784.31
2023-01-31T17:14:12.211Z,96783.84
2023-01-31T17:16:41.933Z,96788.97
2023-01-31T17:19:11.569Z,96781.16
2023-01-31T17:21:43.211Z,96781.63
2023-01-31T17:24:14.359Z,96771.19
2023-01-31T17:26:42.512Z,96770.38
2023-01-31T17:29:10.674Z,96756.16
2023-01-31T17:31:39.551Z,96752.25
2023-01-31T17:34:13.890Z,96762.00
2023-01-31T17:36:43.916Z,96765.38
2023-01-31T17:39:12.081Z,96766.38
2023-01-31T17:41:41.300Z,96767.50
2023-01-31T17:44:15.137Z,96782.06
2023-01-31T17:46:44.540Z,96771.56
2023-01-31T17:49:12.952Z,96780.47
2023-01-31T17:51:41.130Z,96773.94
2023-01-31T17:54:11.606Z,96763.69
2023-01-31T17:56:40.245Z,96736.66
2023-01-31T17:59:12.274Z,96750.66
2023-01-31T18:01:43.611Z,96736.38
2023-01-31T18:04:11.900Z,96729.56
2023-01-31T18:06:40.192Z,96749.13
2023-01-31T18:09:10.381Z,96748.72
2023-01-31T18:11:43.696Z,96748.69
2023-01-31T18:14:12.218Z,96748.44
2023-01-31T18:16:40.248Z,96739.63
2023-01-31T18:19:08.317Z,96723.47
2023-01-31T18:21:43.906Z,96725.47
2023-01-31T18:24:16.809Z,96736.56
2023-01-31T18:26:45.663Z,96726.84
2023-01-31T18:29:19.592Z,96718.53
2023-01-31T18:31:48.440Z,96712.75
2023-01-31T18:34:17.265Z,96714.91
2023-01-31T18:36:45.564Z,96714.81
2023-01-31T18:39:13.847Z,96716.09
2023-01-31T18:41:43.437Z,96723.34
2023-01-31T18:44:11.713Z,96717.13
2023-01-31T18:46:39.881Z,96709.75
2023-01-31T18:49:07.960Z,96710.78
2023-01-31T18:51:36.064Z,96714.94
2023-01-31T18:54:05.942Z,96705.19
2023-01-31T18:56:34.393Z,96700.50
2023-01-31T18:59:03.878Z,96690.50
2023-01-31T19:01:32.265Z,96685.00
2023-01-31T19:04:00.424Z,96695.03
2023-01-31T19:06:31.077Z,96678.69
2023-01-31T19:08:59.616Z,96692.97
2023-01-31T19:11:29.636Z,96700.22
2023-01-31T19:13:58.513Z,96695.03
2023-01-31T19:16:29.996Z,96701.22
2023-01-31T19:18:58.599Z,96688.94
2023-01-31T19:21:28.361Z,96694.75
2023-01-31T19:23:58.184Z,96691.31
2023-01-31T19:26:27.260Z,96679.19
2023-01-31T19:28:56.453Z,96683.16
2023-01-31T19:31:26.353Z,96685.66
2023-01-31T19:33:58.058Z,96673.38
2023-01-31T19:36:29.369Z,96665.41
2023-01-31T19:38:58.176Z,96671.94
2023-01-31T19:41:27.604Z,96665.03
2023-01-31T19:43:57.317Z,96650.47
2023-01-31T19:46:27.402Z,96653.91
2023-01-31T19:48:58.652Z,96658.94
2023-01-31T19:51:27.463Z,96666.50
2023-01-31T19:53:59.077Z,96664.25
2023-01-31T19:56:27.423Z,96676.38
2023-01-31T19:58:55.639Z,96666.78
2023-01-31T20:01:23.860Z,96655.53
2023-01-31T20:03:55.642Z,96658.28
2023-01-31T20:06:27.556Z,96657.22
2023-01-31T20:08:56.924Z,96664.38
2023-01-31T20:11:25.841Z,96690.38
2023-01-31T20:13:55.321Z,96658.03
2023-01-31T20:16:23.540Z,96668.69
2023-01-31T20:18:53.068Z,96667.72
2023-01-31T20:21:22.541Z,96682.78
2023-01-31T20:23:52.099Z,96690.16
2023-01-31T20:26:22.897Z,96688.50
2023-01-31T20:28:50.992Z,96700.66
2023-01-31T20:31:20.337Z,96693.94
2023-01-31T20:33:48.599Z,96670.22
2023-01-31T20:36:16.777Z,96685.72
2023-01-31T20:38:45.562Z,96691.59
2023-01-31T20:41:15.403Z,96698.25
2023-01-31T20:43:44.591Z,96688.34
2023-01-31T20:46:14.363Z,96686.44
2023-01-31T20:48:43.345Z,96681.03
2023-01-31T20:51:11.677Z,96677.41
2023-01-31T20:53:39.729Z,96678.22
2023-01-31T20:56:10.676Z,96673.72
2023-01-31T20:58:42.607Z,96672.56
2023-01-31T21:01:12.174Z,96677.81
2023-01-31T21:03:40.335Z,96664.03
2023-01-31T21:06:09.278Z,96664.03
2023-01-31T21:08:37.208Z,96664.84
2023-01-31T21:11:07.311Z,96669.66
2023-01-31T21:13:36.064Z,96678.94
2023-01-31T21:16:08.215Z,96676.75
2023-01-31T21:18:38.811Z,96689.13
2023-01-31T21:21:09.232Z,96692.34
2023-01-31T21:23:39.130Z,96674.66
2023-01-31T21:26:08.870Z,96675.63
2023-01-31T21:28:37.683Z,96663.50
2023-01-31T21:31:09.986Z,96667.06
2023-01-31T21:33:38.316Z,96664.06
2023-01-31T21:36:08.837Z,96669.38
2023-01-31T21:38:37.021Z,96651.38
2023-01-31T21:41:22.960Z,96652.72
2023-01-31T21:43:51.379Z,96674.19
2023-01-31T21:46:20.964Z,96679.13
2023-01-31T21:48:49.512Z,96681.78
2023-01-31T21:51:19.105Z,96692.22
2023-01-31T21:53:47.719Z,96688.16
2023-01-31T21:56:18.002Z,96690.63
2023-01-31T21:58:46.454Z,96695.56
2023-01-31T22:01:18.027Z,96709.75
2023-01-31T22:03:49.743Z,96703.44
2023-01-31T22:06:20.264Z,96693.34
2023-01-31T22:08:51.832Z,96690.34
2023-01-31T22:11:20.289Z,96690.50
2023-01-31T22:13:52.229Z,96708.31
2023-01-31T22:16:22.937Z,96692.47
2023-01-31T22:18:53.420Z,96712.97
2023-01-31T22:21:23.908Z,96725.91
2023-01-31T22:23:53.788Z,96731.59
2023-01-31T22:26:24.053Z,96730.59
2023-01-31T22:28:53.258Z,96723.75
2023-01-31T22:31:21.322Z,96732.47
2023-01-31T22:33:49.847Z,96730.06
2023-01-31T22:36:20.046Z,96724.59
2023-01-31T22:38:48.315Z,96712.03
2023-01-31T22:41:19.873Z,96714.31
2023-01-31T22:43:50.422Z,96697.44
2023-01-31T22:46:20.886Z,96700.25
2023-01-31T22:48:49.966Z,96688.53
2023-01-31T22:51:21.524Z,96707.19
2023-01-31T22:53:50.100Z,96701.56
2023-01-31T22:56:20.156Z,96692.72
2023-01-31T22:58:49.410Z,96714.69
2023-01-31T23:01:19.493Z,96706.63
2023-01-31T23:03:48.388Z,96701.81
2023-01-31T23:06:18.142Z,96699.28
2023-01-31T23:08:47.708Z,96718.25
2023-01-31T23:11:18.503Z,96704.19
2023-01-31T23:13:48.036Z,96696.28
2023-01-31T23:16:18.405Z,96699.31
2023-01-31T23:18:46.764Z,96709.00
2023-01-31T23:21:17.143Z,96718.09
2023-01-31T23:23:47.499Z,96725.47
2023-01-31T23:26:15.891Z,96710.13
2023-01-31T23:28:44.061Z,96696.44
2023-01-31T23:31:12.296Z,96703.34
2023-01-31T23:33:40.480Z,96702.75
2023-01-31T23:36:09.052Z,96712.25
2023-01-31T23:38:37.327Z,96716.19
2023-01-31T23:41:06.740Z,96730.47
2023-01-31T23:43:34.816Z,96713.06
2023-01-31T23:46:03.210Z,96732.63
2023-01-31T23:48:31.580Z,96717.19
2023-01-31T23:51:03.821Z,96733.03
2023-01-31T23:53:32.198Z,96713.13
2023-01-31T23:56:00.198Z,96720.47
2023-01-31T23:58:29.896Z,96724.63
